[source: ADDS]
METAR
EDVE 221920Z VRB01KT CAVOK 02/M02 Q1023

EDDV 221920Z AUTO VRB01KT CAVOK 03/00 Q1023 NOSIG

ETHS 221820Z 01005KT 9999 FEW035TCU SCT050 05/M02 Q1022 BLU+BLU+

EDBC 221920Z AUTO 05003KT 9999 // FEW083/// 03/M02 Q1023

ETHC 221820Z 17002KT 9999 FEW047TCU SCT060 07/M03 Q1022 BLU+

EDVK 221920Z AUTO 06005KT 9999 // NCD 02/M02 Q1022

TAF

TAF EDVE 221700Z 2218/2221 VRB03KT CAVOK

TAF EDDV 221700Z 2218/2318 04005KT CAVOK
BECMG 2218/2220 VRB03KT
TEMPO 2301/2305 3000 BCFG
PROB30
TEMPO 2302/2305 0800 FG
TEMPO 2309/2317 28006KT

TAF ETHS 221615Z 2217/2302 02005KT 9999 NSW SCT050
PROB30 2300/2302 VRB03KT 4500 MIFG SCT025

TAF ETHC 221316Z 2214/2223 VRB03KT 9999 NSW FEW040 SCT100
TEMPO 2214/2218 20008KT 4000 SHRA BKN030CB

TAF EDVK 221700Z 2218/2303 06006KT 9999 FEW035
BECMG 2218/2221 VRB03KT

SR / SS: 04:03 / 18:28 UTC (EDVE 2024-04-22)
Wir begrüßen Malte als neues Mitglied der FFG! Viel Spass und always Happy Landings! (01.04.) +++ Herzlich Willkommen bei der FFG, Tim-Oliver! Viel Spaß und Erfolg bei deiner Ausbildung! (01.04.) +++ Felix und Norman haben die Nachtflugberechtigung erworben! Herzlichen Glückwunsch und Always Bright Moonlight (18.03.) +++ Daniel hat die Nachtflugberechtigung erworben! Herzlichen Glückwunsch und Always Bright Moonlight! (29.02.) +++ Stefan hat seine praktische PPL-Prüfung bestanden! Gratulation und weiterhin Happy Landings! (16.02.) +++ Max hat seine Nachtflugqualifikation erhalten. Herzlichen Glückwünsch und Always happy landings! (28.01.) +++ >>> Bristell D-ENYY eingetroffen <<< Herzlich Willkommen bei der FFG, Eduard! Viel Spaß und Erfolg bei deiner Ausbildung! (15.01.) +++ Die FFG hat zwei neue Mitglieder und Flugschüler. Herzlich willkommen an Viveik und Tim und viel Spaß bei der Ausbildung (01.12.) +++ Clemens hat die Theoretische Prüfung bestanden! Herzlichen Glückwunsch und weiterhin viel Erfolg bei Deiner Ausbildung (16.11.) +++ André hat seinen ersten Alleinflug absolviert! Herzlichen Glückwunsch und weiterhin viel Erfolg bei Deiner Ausbildung (15.09.) +++ Daniel hat seine PPL-Prüfung bestanden! Herzlichen Glückwunsch und weiterhin Happy Landings! (11.09.) +++ Clemens ist seine ersten Solo Platzrunden geflogen. Herzlichen Glückwunsch und weiterhin viel Erfolg bei Deiner Ausbildung (09.09.) +++ Stefan hat seine Instrumentenflugberechtigung erworben! Herzlichen Glückwunsch und Always Happy Landings! (06.09.) +++ Wir gratulieren Marc zum ersten Soloflug! Herzlichen Glückwunsch und weiterhin viel Erfolg bei Deiner Ausbildung (24.08.) +++ Vincent hat seine theoretische Prüfung bestanden! Herzlichen Glückwunsch und weiterhin viel Erfolg bei Deiner Ausbildung (10.08.) +++ Stefan hat seine Theorieprüfung bestanden! Herzlichen Glückwunsch und weiterhin viel Erfolg bei Deiner Ausbildung (27.07.) +++ Julian hat die IR-Prüfung bestanden! Herzlichen Glückwunsch und Always Happy Landings. (25.07.) +++ Oliver hat die Praktische Prüfung bestanden! Herzlichen Glückwunsch und Always Happy Landings. (12.06.) +++ Und eine PPL mehr.... Glückwunsch Luis zur Lizenz. (27.04.) +++ Michel und Clemens haben heute die Theoretische Prüfung bestanden! Glückwunsch euch beiden und viel Erfolg bei der Praxis. (06.04.) +++ Daniel hat seine LAPL-Prüfung bestanden! Herzlichen Glückwunsch und Always Happy Landings. (29.03.) +++ Glückwunsch zum ersten Solo, Stefan! Ein denkwürdiger Tag im Leben eines jeden Piloten. (17.03.) +++ Die FFG hat ein neues Mitglied und erfahrenen Piloten bekommen! Willkommen Hermann und viel Spaß in der FFG. (01.03.) +++ Daniel hat heute die Theoretische Prüfung bestanden! Gratulation und weiterhin viel Erfolg bei der Praxis. (22.02.) +++ Luis hat die Theoretische Prüfung bestanden! Herzlichen Glückwunsch und viel Erfolg bei der Praxis. (09.02.) +++ Tibor hat seine Instrumentenflugberechtigung erhalten! Herzlichen Glückwunsch und Always Happy Landings. (06.02.) +++ Alexander hat die Theoretische Prüfung bestanden! Herzlichen Glückwunsch und viel Erfolg bei der Praxis. (21.01.) +++ Seit heute haben wir 5 neue BZF Besitzer. Glückwunsch Clemens E, Clemens H, Richard, Robert und Stefan. Super gemacht, weiter so. (19.01.) +++ André startet seine PPL(a) Ausbildung zum 1.1. - viel Erfolg dabei. (17.12.) +++ Die FFG begrüßt herzlich Axel als neues Vollmitglied. (16.12. ) +++ Und wieder einer ohne Lehrer unterwegs- Gratulation Daniel ! (26.10.) +++ Norman hat heute seine Praktische Prüfung bestanden. Herzlichen Glückwunsch und Always Happy Landings (28.10) +++ Glückwunsch Karsten! Die Schülerakte wurde soeben geschlossen :-) Always happy Landings (12.9.) +++ Hendrik ist heute seine ersten Solo-Platzrunden geflogen. Herzlichen Glückwünsch und always happy landings (3.9.) +++ Wir begrüßen Richard als neues Mitglied der FFG und wünschen eine erfolgreiche Ausbildung! (1.9.) +++ Norman hat die Theoretische Prüfung bestanden. Herzlichen Glückwunsch (31.8.) +++ Vincent hat seinen ersten Alleinflug absolviert! Herzlichen Glückwunsch und weiterhin Happy Landings! (26.08.) +++ Wir heißen Clemens E. und Clemens H. als neue Flugschüler willkommen und wünschen eine erfolgreiche Ausbildung! (26.08.) +++ Herzlichen Glückwünsch zum ersten Solo, Luis und always happy landings! (22.08.) +++ Die FFG hat ein neues Vereinsmitglied und einen weiteren Flugschüler. Herzlich Willkommen, Stefan ! (7.8.) +++ Vom „Fußgänger“ zum Luftfahrzeugführer! Lieber Carsten, herzlichen Glückwunsch zur bestandenen PPL-Prüfung! (19.7.) +++ Simon hat seine Praktische Prüfung bestanden! (12.07.) Herzlichen Glückwunsch und Always Happy Landings +++ Wir begrüßen Stefan S. als neues Mitglied der FFG! - Herzlichen Glückwunsch & Always Happy Landings! (06.07.) +++ (Falscheintrag ?? hr) Die FFG hat ein neues Vereinsmitglied und die Flugschule einen neuen Schüler: Herzlich Willkommen, Robert, und viel Spaß und Erfolg bei deiner Ausbildung. (2.7.) +++ Patrik hat heute sein erstes Solo geflogen - Herzlichen Glückwunsch & Always Happy Landings! (30.6.) +++ Herzlichen Glückwunsch Thiago zur erfolgreichen Prüfung (15.06.) & Always Happy Landings +++ Herzlichen Glückwunsch zu bestandenen PPL(A) Prüfung, Fabian - always happy landings ! (19.5.) +++ Stefan hat die Prüfung für die Instrumentenflugberechtigung bestanden! Gratulation und weiterhin Happy Landings! . (04.05.) +++ Herzlich Willkommen bei der FFG, Eike, und viel Spaß und Erfolg bei deiner Ausbildung. (22.04.) +++ Wir heißen Daniel H. als neuen Flugschüler willkommen und wünschen eine erfolgreiche Ausbildung! (01.04.) +++ Gratulation auch an Daniel P., der heute (31.03.) seinen ersten Alleinflug absolviert hat! Herzlichen Glückwunsch und weiterhin Happy Landings! +++ Norman hat am 15.03. seinen ersten Alleinflug absolviert! Herzlichen Glückwunsch und weiterhin Happy Landings! +++ Daniel hat heute (9.3.) seine Theoretische Prüfung bestanden! Herzlichen Glückwunsch und viel Spaß bei den nächsten Ausbildungsschritten +++ Marek hat heute (1.3.) seine Praktische Prüfung bestanden -Herzlichen Glückwunsch und Always Happy Landings +++ Herzlich Willkommen, Luis. Viel Spaß und Erfolg bei deiner Ausbildung. +++ Herzlich Willkommen, Maximilian. Viel Spaß und Erfolg bei deiner Ausbildung. +++ Simon hat heute (9.2.) seine Theoretische Prüfung bestanden - Herzlichen Glückwunsch +++ Paul hat heute (22. Nov) seine PPL-Prüfung bestanden! Herzlichen Glückwunsch und Always Happy Landings! +++ Willkommen bei der FFG, Vincent. Viel Spaß und Erfolg bei deiner Ausbildung! +++ Willkommen bei der FFG, Doris. Viel Spaß und Erfolg bei deiner Ausbildung! +++ Holger hat seine PPL-Prüfung bestanden! Gratulation und weiterhin Happy Landings! +++ Micha hat seine PPL-Prüfung bestanden! Gratulation und weiterhin Happy Landings! +++ Simon hat seinen ersten Alleinflug absolviert! Herzlichen Glückwunsch und weiterhin Happy Landings! +++ Wir heißen Torben als neuen Flugschüler willkommen und wünschen eine erfolgreiche Ausbildung! +++ Wir heißen Michel, Norman und Philip als neue Flugschüler willkommen und wünschen viel Spaß und Erfolg bei eurer Ausbildung! +++

wenig -> mittel -> viel

 Zugang zur DFS. Auf dem FFG-Account sind alle erforderlichen Daten unserer Maschinen hinterlegt.

DFS Login

Letztes NOTAM EDVE
von 16.04.2024 1357Z bis 16.07.2024 2359Z
SID CHANGED DUE TO DECOMMISSIONING OF DLE DVOR/DME: GPS/FMS RNAV OVERLAY REMAIN UNCHANGED. AMEND DLE DVOR/DME TO READ DLE INT. PSN REM [more]

Letztes NOTAM EDBC
von 05.03.2024 0817Z bis 05.06.2024 0800Z
COCHSTEDT DME COD 113.35MHZ/CH80Y OUT OF SERVICE.

Letztes NOTAM EDOV
von 03.05.2024 1000Z bis 05.05.2024 2300Z
SR-SS
PJE 2NM RADIUS CENTERED ON 523744N 0114912E, STENDAL BORSTEL (26.3NM SSE BRUENKENDORF DVOR/DME BKD).
GND- FL100

Letztes NOTAM EDDV
von 22.04.2024 1054Z bis 23.04.2024 0700Z
INT A1 CLSD.

Letztes NOTAM EDVK
von 22.04.2024 0000Z bis 23.04.2024 2359Z
GA-APRON WIP AND CLOSED IN FRONT OF GAT-OFFICE (40X40METERS).

Letztes NOTAM EDVS
von 22.04.2024 0000Z bis 10.07.2024 2359Z
2 TOWER CRANES 2690M N ARP WI TFC CIRCUIT. ELEV 509FT/214FT AGL. JIB 55M. DAY AND NIGHT MARKED.